createdAt,value
2023-03-29T00:01:10.272Z,9.23
2023-03-29T00:03:39.834Z,9.25
2023-03-29T00:06:07.738Z,8.35
2023-03-29T00:08:38.400Z,9.30
2023-03-29T00:11:09.298Z,9.48
2023-03-29T00:13:38.314Z,9.55
2023-03-29T00:16:06.498Z,9.23
2023-03-29T00:21:01.965Z,8.73
2023-03-29T00:23:31.565Z,8.77
2023-03-29T00:25:59.716Z,10.73
2023-03-29T00:28:27.295Z,8.93
2023-03-29T00:31:04.140Z,8.18
2023-03-29T00:33:32.399Z,9.10
2023-03-29T00:36:01.531Z,10.23
2023-03-29T00:38:31.479Z,9.27
2023-03-29T00:40:59.745Z,9.40
2023-03-29T00:43:27.784Z,10.07
2023-03-29T00:45:56.952Z,9.82
2023-03-29T00:48:28.192Z,10.07
2023-03-29T00:51:10.717Z,10.10
2023-03-29T00:53:50.905Z,10.98
2023-03-29T00:56:35.176Z,10.15
2023-03-29T00:59:22.148Z,10.50
2023-03-29T01:02:09.647Z,11.45
2023-03-29T01:05:07.807Z,12.10
2023-03-29T01:07:44.201Z,12.70
2023-03-29T01:10:17.312Z,14.93
2023-03-29T01:12:53.601Z,15.50
2023-03-29T01:15:29.317Z,14.98
2023-03-29T01:18:02.081Z,16.10
2023-03-29T01:20:51.355Z,15.98
2023-03-29T01:23:45.887Z,14.90
2023-03-29T01:26:19.765Z,14.30
2023-03-29T01:28:59.918Z,15.65
2023-03-29T01:31:58.778Z,14.85
2023-03-29T01:34:43.437Z,14.07
2023-03-29T01:37:29.040Z,13.63
2023-03-29T01:39:56.878Z,13.57
2023-03-29T01:45:12.743Z,13.70
2023-03-29T01:48:00.121Z,14.18
2023-03-29T01:50:37.840Z,14.35
2023-03-29T01:53:18.390Z,14.57
2023-03-29T01:55:57.321Z,15.00
2023-03-29T01:58:31.661Z,13.57
2023-03-29T02:01:05.841Z,12.57
2023-03-29T02:03:34.739Z,12.60
2023-03-29T02:06:05.395Z,14.05
2023-03-29T02:13:31.015Z,12.95
2023-03-29T02:16:03.326Z,13.73
2023-03-29T02:18:36.182Z,14.65
2023-03-29T02:21:07.999Z,13.73
2023-03-29T02:23:41.805Z,14.07
2023-03-29T02:26:11.338Z,14.13
2023-03-29T02:28:40.848Z,14.32
2023-03-29T02:31:52.028Z,13.63
2023-03-29T02:34:30.385Z,12.23
2023-03-29T02:37:03.197Z,12.27
2023-03-29T02:39:34.081Z,11.57
2023-03-29T02:42:04.036Z,11.85
2023-03-29T02:44:36.613Z,11.07
2023-03-29T02:47:14.091Z,11.60
2023-03-29T02:49:43.947Z,11.88
2023-03-29T02:52:16.685Z,10.23
2023-03-29T02:54:48.468Z,11.48
2023-03-29T02:57:16.502Z,10.88
2023-03-29T02:59:45.142Z,10.57
2023-03-29T03:02:14.880Z,11.10
2023-03-29T03:04:43.679Z,10.85
2023-03-29T03:07:12.228Z,10.98
2023-03-29T03:09:43.733Z,12.00
2023-03-29T03:12:11.998Z,11.65
2023-03-29T03:14:40.709Z,12.13
2023-03-29T03:17:08.674Z,13.07
2023-03-29T03:19:39.612Z,13.45
2023-03-29T03:22:07.939Z,13.10
2023-03-29T03:27:03.719Z,13.65
2023-03-29T03:29:32.486Z,13.18
2023-03-29T03:32:14.572Z,12.57
2023-03-29T03:35:20.437Z,14.00
2023-03-29T03:37:48.770Z,13.38
2023-03-29T03:40:20.880Z,12.95
2023-03-29T03:42:49.821Z,14.45
2023-03-29T03:45:17.793Z,13.80
2023-03-29T03:47:49.978Z,13.40
2023-03-29T03:50:40.880Z,13.63
2023-03-29T03:53:19.768Z,14.68
2023-03-29T03:56:09.267Z,14.43
2023-03-29T03:58:52.750Z,15.07
2023-03-29T04:01:23.748Z,15.13
2023-03-29T04:04:03.184Z,14.98
2023-03-29T04:06:33.405Z,14.50
2023-03-29T04:12:02.208Z,12.70
2023-03-29T04:14:32.527Z,14.15
2023-03-29T04:17:09.675Z,15.48
2023-03-29T04:20:01.515Z,15.40
2023-03-29T04:22:33.186Z,16.27
2023-03-29T04:25:01.660Z,16.35
2023-03-29T04:27:36.415Z,14.93
2023-03-29T04:30:11.437Z,14.85
2023-03-29T04:32:58.198Z,15.25
2023-03-29T04:35:26.276Z,14.90
2023-03-29T04:37:54.739Z,14.38
2023-03-29T04:40:23.612Z,13.70
2023-03-29T04:43:03.980Z,15.75
2023-03-29T04:45:32.370Z,15.18
2023-03-29T04:48:10.733Z,16.30
2023-03-29T04:50:46.319Z,13.30
2023-03-29T04:53:15.682Z,13.70
2023-03-29T04:55:47.529Z,13.88
2023-03-29T05:00:58.270Z,10.90
2023-03-29T05:03:32.635Z,13.07
2023-03-29T05:06:07.565Z,13.05
2023-03-29T05:08:40.452Z,12.65
2023-03-29T05:11:15.709Z,13.48
2023-03-29T05:13:46.519Z,13.65
2023-03-29T05:16:16.701Z,13.35
2023-03-29T05:18:45.273Z,14.68
2023-03-29T05:21:14.224Z,12.25
2023-03-29T05:23:45.815Z,15.13
2023-03-29T05:26:31.924Z,11.63
2023-03-29T05:29:00.141Z,12.25
2023-03-29T05:31:29.599Z,12.23
2023-03-29T05:33:57.969Z,12.55
2023-03-29T05:36:29.035Z,12.48
2023-03-29T05:41:26.497Z,13.00
2023-03-29T05:44:17.514Z,12.07
2023-03-29T05:46:49.815Z,11.48
2023-03-29T05:49:18.713Z,14.38
2023-03-29T05:51:58.702Z,13.30
2023-03-29T05:54:28.219Z,11.27
2023-03-29T05:56:56.041Z,13.07
2023-03-29T05:59:24.554Z,14.32
2023-03-29T06:01:53.040Z,12.77
2023-03-29T06:04:22.133Z,13.30
2023-03-29T06:09:30.703Z,13.68
2023-03-29T06:12:04.384Z,13.25
2023-03-29T06:14:49.992Z,14.00
2023-03-29T06:17:43.629Z,13.48
2023-03-29T06:20:12.726Z,14.40
2023-03-29T06:22:43.970Z,15.82
2023-03-29T06:25:14.289Z,14.00
2023-03-29T06:27:46.991Z,15.70
2023-03-29T06:30:17.287Z,14.57
2023-03-29T06:32:50.842Z,12.95
2023-03-29T06:35:49.692Z,13.00
2023-03-29T06:38:25.342Z,15.57
2023-03-29T06:41:07.551Z,13.23
2023-03-29T06:43:55.163Z,14.02
2023-03-29T06:46:32.472Z,13.20
2023-03-29T06:49:07.216Z,13.38
2023-03-29T06:51:44.335Z,14.87
2023-03-29T06:54:17.378Z,12.50
2023-03-29T06:57:01.608Z,12.88
2023-03-29T06:59:31.423Z,11.23
2023-03-29T07:02:09.950Z,11.65
2023-03-29T07:04:47.889Z,11.82
2023-03-29T07:07:33.356Z,11.88
2023-03-29T07:10:28.329Z,11.68
2023-03-29T07:13:15.722Z,12.40
2023-03-29T07:15:45.236Z,11.57
2023-03-29T07:18:32.658Z,13.52
2023-03-29T07:21:01.391Z,13.73
2023-03-29T07:23:31.193Z,9.13
2023-03-29T07:26:00.496Z,12.05
2023-03-29T07:28:29.150Z,10.70
2023-03-29T07:33:41.525Z,9.10
2023-03-29T07:36:12.473Z,9.85
2023-03-29T07:38:41.907Z,9.48
2023-03-29T07:41:15.796Z,10.93
2023-03-29T07:43:47.133Z,9.65
2023-03-29T07:46:22.072Z,8.35
2023-03-29T07:48:50.817Z,9.05
2023-03-29T07:51:18.635Z,9.43
2023-03-29T07:53:49.939Z,8.70
2023-03-29T07:56:45.124Z,8.23
2023-03-29T07:59:33.500Z,11.35
2023-03-29T08:02:21.488Z,8.45
2023-03-29T08:04:54.800Z,8.70
2023-03-29T08:07:31.403Z,8.10
2023-03-29T08:10:05.233Z,6.78
2023-03-29T08:12:50.468Z,6.75
2023-03-29T08:15:20.921Z,8.10
2023-03-29T08:17:50.867Z,7.40
2023-03-29T08:20:19.300Z,6.53
2023-03-29T08:22:50.009Z,6.85
2023-03-29T08:25:40.445Z,7.05
2023-03-29T08:28:11.788Z,6.18
2023-03-29T08:30:45.853Z,6.10
2023-03-29T08:33:14.349Z,5.72
2023-03-29T08:35:42.930Z,8.35
2023-03-29T08:38:17.998Z,6.50
2023-03-29T08:40:49.303Z,6.28
2023-03-29T08:43:36.587Z,6.20
2023-03-29T08:46:27.444Z,6.03
2023-03-29T08:49:06.972Z,5.97
2023-03-29T08:51:46.568Z,5.80
2023-03-29T08:54:25.066Z,4.68
2023-03-29T08:57:27.296Z,5.95
2023-03-29T09:00:06.276Z,5.53
2023-03-29T09:02:39.022Z,6.95
2023-03-29T09:05:32.017Z,5.55
2023-03-29T09:12:05.633Z,5.65
2023-03-29T09:14:47.054Z,6.07
2023-03-29T09:20:54.455Z,4.88
2023-03-29T09:24:03.691Z,4.95
2023-03-29T09:26:49.380Z,4.80
2023-03-29T09:29:35.188Z,4.80
2023-03-29T09:32:13.708Z,5.20
2023-03-29T09:34:49.534Z,5.90
2023-03-29T09:37:37.206Z,5.20
2023-03-29T09:40:31.264Z,4.95
2023-03-29T09:43:11.350Z,4.80
2023-03-29T09:45:43.877Z,4.55
2023-03-29T09:48:17.987Z,5.43
2023-03-29T09:50:52.596Z,5.53
2023-03-29T09:53:22.209Z,5.82
2023-03-29T09:56:09.941Z,4.90
2023-03-29T09:58:47.110Z,5.07
2023-03-29T10:01:17.850Z,5.43
2023-03-29T10:03:54.276Z,5.70
2023-03-29T10:06:26.076Z,5.80
2023-03-29T10:08:59.454Z,5.82
2023-03-29T10:11:48.200Z,5.22
2023-03-29T10:14:32.282Z,5.30
2023-03-29T10:17:00.038Z,4.68
2023-03-29T10:19:34.904Z,5.10
2023-03-29T10:22:08.270Z,5.72
2023-03-29T10:24:36.440Z,5.10
2023-03-29T10:27:10.912Z,4.88
2023-03-29T10:29:42.879Z,5.18
2023-03-29T10:32:24.116Z,5.28
2023-03-29T10:34:55.034Z,5.00
2023-03-29T10:37:24.167Z,4.80
2023-03-29T10:39:54.402Z,5.28
2023-03-29T10:42:24.500Z,4.68
2023-03-29T10:44:58.113Z,5.07
2023-03-29T10:47:26.296Z,5.05
2023-03-29T10:49:59.205Z,4.82
2023-03-29T10:52:29.185Z,5.82
2023-03-29T10:55:00.369Z,5.18
2023-03-29T10:57:57.640Z,5.60
2023-03-29T11:00:59.017Z,5.00
2023-03-29T11:03:59.828Z,4.72
2023-03-29T11:06:45.879Z,4.95
2023-03-29T11:09:14.492Z,5.03
2023-03-29T11:12:14.464Z,5.72
2023-03-29T11:15:01.564Z,5.00
2023-03-29T11:17:41.440Z,6.55
2023-03-29T11:20:21.689Z,4.82
2023-03-29T11:23:13.903Z,5.55
2023-03-29T11:26:04.907Z,5.95
2023-03-29T11:28:56.972Z,4.65
2023-03-29T11:31:39.333Z,4.68
2023-03-29T11:34:23.009Z,4.90
2023-03-29T11:37:07.822Z,4.75
2023-03-29T11:40:13.850Z,4.85
2023-03-29T11:42:45.757Z,4.53
2023-03-29T11:45:21.306Z,4.22
2023-03-29T11:47:52.066Z,3.88
2023-03-29T11:50:43.250Z,4.63
2023-03-29T11:53:22.952Z,3.97
2023-03-29T11:55:52.967Z,4.75
2023-03-29T11:58:36.556Z,3.45
2023-03-29T12:01:45.759Z,3.63
2023-03-29T12:04:23.095Z,3.45
2023-03-29T12:06:58.515Z,3.97
2023-03-29T12:09:59.024Z,3.70
2023-03-29T12:12:42.208Z,3.42
2023-03-29T12:15:20.507Z,3.72
2023-03-29T12:18:12.987Z,3.20
2023-03-29T12:20:42.149Z,3.60
2023-03-29T12:23:16.995Z,3.40
2023-03-29T12:26:14.025Z,3.95
2023-03-29T12:28:59.281Z,3.72
2023-03-29T12:32:01.786Z,3.75
2023-03-29T12:34:46.519Z,3.35
2023-03-29T12:37:56.674Z,2.85
2023-03-29T12:40:46.896Z,3.28
2023-03-29T12:43:40.010Z,3.60
2023-03-29T12:46:33.331Z,3.42
2023-03-29T12:49:13.253Z,3.40
2023-03-29T12:51:43.052Z,2.67
2023-03-29T12:54:15.942Z,2.55
2023-03-29T12:56:56.917Z,2.80
2023-03-29T12:59:47.299Z,2.70
2023-03-29T13:02:19.842Z,2.88
2023-03-29T13:04:54.405Z,2.60
2023-03-29T13:07:27.994Z,2.55
2023-03-29T13:10:07.878Z,2.80
2023-03-29T13:12:43.826Z,2.55
2023-03-29T13:15:14.792Z,2.80
2023-03-29T13:17:52.755Z,2.63
2023-03-29T13:20:37.494Z,3.05
2023-03-29T13:23:49.145Z,2.90
2023-03-29T13:26:29.131Z,3.10
2023-03-29T13:29:06.233Z,3.20
2023-03-29T13:31:47.395Z,2.97
2023-03-29T13:34:33.866Z,3.30
2023-03-29T13:37:27.205Z,3.20
2023-03-29T13:39:56.076Z,3.17
2023-03-29T13:42:36.532Z,3.50
2023-03-29T13:45:16.081Z,3.08
2023-03-29T13:47:58.778Z,3.35
2023-03-29T13:50:51.996Z,3.20
2023-03-29T13:53:33.440Z,3.67
2023-03-29T13:56:02.010Z,3.50
2023-03-29T13:58:43.197Z,3.35
2023-03-29T14:01:20.952Z,2.80
2023-03-29T14:03:51.884Z,2.30
2023-03-29T14:06:27.251Z,2.33
2023-03-29T14:08:56.567Z,2.30
2023-03-29T14:11:30.031Z,2.70
2023-03-29T14:14:01.430Z,2.30
2023-03-29T14:16:36.268Z,2.30
2023-03-29T14:19:16.986Z,2.30
2023-03-29T14:21:45.898Z,2.22
2023-03-29T14:24:23.340Z,2.30
2023-03-29T14:26:53.598Z,2.88
2023-03-29T14:29:22.385Z,2.47
2023-03-29T14:31:52.383Z,3.05
2023-03-29T14:34:20.850Z,2.90
2023-03-29T14:36:49.568Z,2.60
2023-03-29T14:39:23.175Z,2.95
2023-03-29T14:41:57.381Z,2.85
2023-03-29T14:44:34.726Z,3.20
2023-03-29T14:47:03.470Z,2.85
2023-03-29T14:49:33.313Z,2.90
2023-03-29T14:52:02.125Z,2.88
2023-03-29T14:54:34.863Z,2.67
2023-03-29T14:57:08.738Z,3.58
2023-03-29T14:59:43.364Z,2.80
2023-03-29T15:02:34.521Z,3.00
2023-03-29T15:05:08.105Z,3.33
2023-03-29T15:07:40.033Z,3.72
2023-03-29T15:10:08.724Z,2.92
2023-03-29T15:12:38.237Z,3.00
2023-03-29T15:15:12.729Z,2.75
2023-03-29T15:17:51.739Z,2.50
2023-03-29T15:20:27.660Z,2.38
2023-03-29T15:23:02.268Z,2.20
2023-03-29T15:25:44.533Z,2.17
2023-03-29T15:28:37.142Z,2.00
2023-03-29T15:31:21.864Z,2.40
2023-03-29T15:33:50.197Z,2.40
2023-03-29T15:36:18.258Z,2.28
2023-03-29T15:41:17.454Z,1.73
2023-03-29T15:43:45.149Z,2.10
2023-03-29T15:46:16.587Z,2.20
2023-03-29T15:48:45.326Z,2.10
2023-03-29T15:51:13.379Z,2.05
2023-03-29T15:53:42.038Z,1.98
2023-03-29T15:56:14.921Z,1.85
2023-03-29T15:58:44.961Z,1.48
2023-03-29T16:01:34.701Z,1.75
2023-03-29T16:04:04.977Z,2.10
2023-03-29T16:06:34.549Z,1.50
2023-03-29T16:09:02.406Z,1.77
2023-03-29T16:11:31.522Z,1.80
2023-03-29T16:13:59.885Z,1.80
2023-03-29T16:16:28.012Z,1.50
2023-03-29T16:18:57.293Z,1.73
2023-03-29T16:23:59.933Z,2.60
2023-03-29T16:26:32.714Z,1.92
2023-03-29T16:29:00.396Z,1.70
2023-03-29T16:31:28.209Z,1.88
2023-03-29T16:33:56.134Z,1.70
2023-03-29T16:41:20.070Z,2.08
2023-03-29T16:43:50.576Z,1.60
2023-03-29T16:46:19.324Z,3.05
2023-03-29T16:48:47.267Z,1.85
2023-03-29T16:51:15.337Z,2.13
2023-03-29T16:53:44.533Z,1.70
2023-03-29T16:56:12.649Z,2.15
2023-03-29T17:01:16.284Z,2.10
2023-03-29T17:03:46.396Z,1.98
2023-03-29T17:06:18.714Z,1.60
2023-03-29T17:08:47.469Z,1.90
2023-03-29T17:11:16.818Z,1.85
2023-03-29T17:13:52.128Z,1.88
2023-03-29T17:16:20.685Z,1.80
2023-03-29T17:18:49.560Z,1.38
2023-03-29T17:21:18.850Z,1.58
2023-03-29T17:23:48.787Z,1.67
2023-03-29T17:26:21.936Z,1.98
2023-03-29T17:28:50.099Z,1.85
2023-03-29T17:31:20.688Z,2.15
2023-03-29T17:33:52.352Z,2.30
2023-03-29T17:36:24.169Z,2.13
2023-03-29T17:38:52.203Z,2.03
2023-03-29T17:43:49.098Z,2.00
2023-03-29T17:46:18.464Z,2.78
2023-03-29T17:48:46.564Z,2.33
2023-03-29T17:51:14.763Z,2.40
2023-03-29T17:56:09.796Z,2.38
2023-03-29T17:58:38.538Z,2.45
2023-03-29T18:01:10.971Z,2.38
2023-03-29T18:03:39.323Z,2.75
2023-03-29T18:06:07.810Z,2.20
2023-03-29T18:08:36.546Z,2.47
2023-03-29T18:11:11.126Z,2.35
2023-03-29T18:13:40.052Z,2.50
2023-03-29T18:16:09.677Z,2.90
2023-03-29T18:18:38.909Z,2.90
2023-03-29T18:21:07.298Z,2.60
2023-03-29T18:23:43.458Z,3.10
2023-03-29T18:26:16.255Z,2.88
2023-03-29T18:28:49.050Z,2.40
2023-03-29T18:31:17.558Z,2.70
2023-03-29T18:33:46.863Z,2.85
2023-03-29T18:36:15.031Z,3.30
2023-03-29T18:38:43.977Z,3.65
2023-03-29T18:41:14.109Z,3.80
2023-03-29T18:43:43.278Z,3.38
2023-03-29T18:46:11.904Z,3.28
2023-03-29T18:48:42.070Z,3.22
2023-03-29T18:51:12.825Z,3.90
2023-03-29T18:53:45.068Z,3.83
2023-03-29T18:56:15.212Z,4.68
2023-03-29T18:58:43.629Z,3.90
2023-03-29T19:03:41.533Z,3.53
2023-03-29T19:06:09.857Z,3.92
2023-03-29T19:08:41.718Z,7.07
2023-03-29T19:11:15.045Z,6.25
2023-03-29T19:13:43.346Z,6.32
2023-03-29T19:18:40.188Z,6.65
2023-03-29T19:21:09.594Z,6.50
2023-03-29T19:23:38.466Z,6.03
2023-03-29T19:26:06.974Z,6.80
2023-03-29T19:28:35.106Z,6.88
2023-03-29T19:31:06.425Z,6.10
2023-03-29T19:33:34.374Z,6.95
2023-03-29T19:36:02.463Z,7.35
2023-03-29T19:38:30.516Z,6.80
2023-03-29T19:40:58.421Z,7.10
2023-03-29T19:43:26.399Z,6.65
2023-03-29T19:48:24.730Z,5.00
2023-03-29T19:50:52.931Z,5.63
2023-03-29T19:53:24.458Z,6.28
2023-03-29T19:55:55.265Z,5.40
2023-03-29T19:58:24.647Z,5.60
2023-03-29T20:00:57.107Z,6.00
2023-03-29T20:03:28.548Z,6.60
2023-03-29T20:05:56.995Z,6.15
2023-03-29T20:08:24.955Z,7.20
2023-03-29T20:11:01.932Z,6.68
2023-03-29T20:13:38.337Z,6.03
2023-03-29T20:16:14.327Z,5.70
2023-03-29T20:18:45.041Z,5.47
2023-03-29T20:21:16.647Z,4.97
2023-03-29T20:23:45.228Z,5.25
2023-03-29T20:26:13.224Z,5.05
2023-03-29T20:31:10.800Z,4.13
2023-03-29T20:33:39.641Z,4.90
2023-03-29T20:36:08.852Z,5.05
2023-03-29T20:38:38.272Z,5.32
2023-03-29T20:43:38.692Z,3.70
2023-03-29T20:46:22.603Z,4.13
2023-03-29T20:48:55.219Z,3.42
2023-03-29T20:51:33.243Z,3.70
2023-03-29T20:54:05.089Z,5.50
2023-03-29T20:56:39.037Z,5.03
2023-03-29T20:59:10.589Z,4.72
2023-03-29T21:01:41.186Z,4.93
2023-03-29T21:04:30.982Z,5.07
2023-03-29T21:13:03.615Z,5.13
2023-03-29T21:17:59.945Z,4.95
2023-03-29T21:20:28.143Z,4.13
2023-03-29T21:22:56.538Z,4.55
2023-03-29T21:25:24.535Z,4.05
2023-03-29T21:27:52.124Z,3.85
2023-03-29T21:30:20.732Z,3.25
2023-03-29T21:32:48.647Z,3.40
2023-03-29T21:35:18.582Z,4.25
2023-03-29T21:37:48.138Z,4.03
2023-03-29T21:40:16.048Z,4.10
2023-03-29T21:42:49.720Z,4.13
2023-03-29T21:45:19.988Z,4.45
2023-03-29T21:47:47.915Z,4.68
2023-03-29T21:50:16.803Z,4.20
2023-03-29T21:52:45.033Z,4.13
2023-03-29T21:55:13.757Z,3.95
2023-03-29T21:57:43.548Z,5.47
2023-03-29T22:00:13.950Z,5.10
2023-03-29T22:02:43.471Z,5.03
2023-03-29T22:05:11.942Z,5.10
2023-03-29T22:07:40.043Z,5.18
2023-03-29T22:12:40.580Z,5.22
2023-03-29T22:15:16.109Z,5.32
2023-03-29T22:17:49.949Z,5.00
2023-03-29T22:20:18.689Z,5.63
2023-03-29T22:22:51.690Z,4.80
2023-03-29T22:25:26.747Z,5.35
2023-03-29T22:28:00.004Z,5.15
2023-03-29T22:30:29.101Z,5.25
2023-03-29T22:33:00.332Z,5.68
2023-03-29T22:35:28.656Z,4.95
2023-03-29T22:37:57.836Z,5.43
2023-03-29T22:40:25.560Z,5.38
2023-03-29T22:42:53.146Z,4.85
2023-03-29T22:45:20.862Z,4.25
2023-03-29T22:47:49.080Z,4.20
2023-03-29T22:50:17.396Z,4.28
2023-03-29T22:52:45.233Z,4.38
2023-03-29T22:55:13.168Z,4.35
2023-03-29T22:57:40.832Z,4.78
2023-03-29T23:00:10.507Z,4.70
2023-03-29T23:02:39.429Z,4.60
2023-03-29T23:10:08.037Z,3.92
2023-03-29T23:12:37.476Z,4.30
2023-03-29T23:15:06.521Z,4.22
2023-03-29T23:17:35.072Z,4.68
2023-03-29T23:20:06.420Z,4.53
2023-03-29T23:22:36.356Z,5.10
2023-03-29T23:25:04.674Z,5.05
2023-03-29T23:27:33.327Z,5.70
2023-03-29T23:30:01.788Z,5.25
2023-03-29T23:32:29.708Z,4.38
2023-03-29T23:37:25.149Z,3.83
2023-03-29T23:39:52.773Z,3.75
2023-03-29T23:42:21.171Z,3.58
2023-03-29T23:44:48.988Z,3.03
2023-03-29T23:47:17.330Z,3.58
2023-03-29T23:52:14.142Z,3.25
2023-03-29T23:54:42.079Z,2.85
2023-03-29T23:59:40.135Z,2.13
